Cut Bank, MT

7:00 PM MDT on August 28, 2014 (GMT -0600)
Great Falls International | Change Station
CLOSE
Current Station
Airport
Location: Great Falls,
Elevation: 3658 ft
Nearby Weather Stations

Elev 3658 ft 47.47 °N, 111.38 °W | Updated 7 minutes ago

Clear
Clear
84 °F
Feels Like 84 °F
N
18
Wind Variable Wind from West
Gusts 24 mph

Today
High -- | Low -- °F
--% Chance of Precip.
Yesterday
High -- | Low -- °F
Precip. -- in
6:40 AM 8:19 PM
Waxing Crescent, 11% visible
Pressure 29.79 in
Visibility 10.0 miles
Clouds Clear
Dew Point 31 °F
Humidity 15%
Rainfall 0.00 in
Snow Depth Not available.
UV 1 out of 12
Pollen 3.70 out of 12
Air Quality Not available.
Flu Activity Not available.
METAR KGTF 290053Z 27016G21KT 10SM CLR 29/M01 A2988 RMK AO2 SLP088 T02891006

More Conditions Fewer Conditions

Pressure 29.79 in
Visibility 10.0 miles
Clouds Clear
Dew Point 31 °F
Humidity 15%
Rainfall 0.00 in
Snow Depth Not available.
UV 1 out of 12
Pollen 3.70 out of 12
Air Quality Not available.
Flu Activity Not available.
METAR KGTF 290053Z 27016G21KT 10SM CLR 29/M01 A2988 RMK AO2 SLP088 T02891006

More Conditions Fewer Conditions

10-Day Weather Forecast

Almanac

Astronomy

Aug. 28, 2014 Rise Set
Actual Time 6:40 AM MDT 8:19 PM MDT
Civil Twilight 6:07 AM MDT 8:51 PM MDT
Nautical Twilight 5:27 AM MDT 9:32 PM MDT
Astronomical Twilight 4:43 AM MDT 10:16 PM MDT
Moon 9:54 AM MDT (8/28) 9:25 PM MDT (8/28)
Length of Visible Light 14h 44m
Length of Day
13h 38m
Tomorrow will be 3m 24s shorter.
Waxing Crescent, 11% of the Moon is Illuminated
Today
Waxing Crescent
Sep 2
First Quarter
Sep 8
Full
Sep 15
Last Quarter
Sep 24
New

Today's Extremes

State Highs State Lows

Community

WunderPhotos

Upload Photos

1,748,121 photos uploaded!

Nearby

Snow Depth

Station Depth Elevation
Dupuyer Creek 0 in 5750 ft
Badger Pass 0 in 6900 ft
Waldron 1 in 5600 ft
Emery Creek 0 in 4350 ft
Kraft Creek 0 in 4750 ft

Earthquake Activity

City Distance Mag. Time & Date
No recent earthquake activity has been reported nearby.
Minimum magnitude displayed is 2.5.

Coastal Water Temperatures

Place Temperature
No Stations Reporting

Nearby Weather Stations